To NAV CANADA Home Page Login to a new session Search on AWWS site Disclaimer Vers la page française équivalente Tips FAQ What's new on the site To the Forecasts and Observations / NOTAM section To "File a Flight Plan" website Publications and other links Update of the User's profile FIC Telephone Numbers My Weather Data Folder Route Weather Data Regional Weather Data Local Weather Data To the Forecasts and Observations / NOTAM section
Request Generated 02/17/2019 at 01:59:39 UTC . Weather information available at that time is displayed.


Go to a specific product

Save this request - Inactive

METAR/TAF

CALGARY/YYC CALGARY INTL/AB    

SPECI CYYC 170139Z 35015G20KT 2 1/4SM -SG DRSN BKN020 OVC035 M16/M19 A2998 RMK ST6SC2 CIG VRB 15 - 25 SLP248=
METAR CYYC 170100Z 36016G21KT 1 1/4SM -SG DRSN OVC012 M15/M19 A2996 RMK ST8 SLP242=
SPECI CYYC 170041Z 36015KT 2 1/4SM -SG DRSN OVC020 M15/M19 A2995 RMK ST8 CIG VRB 15 - 25 SLP237=
METAR CYYC 170000Z 35014G19KT 3SM -SN DRSN OVC025 M15/M19 A2993 RMK ST8 /S01/ SLP230=
METAR CYYC 162300Z 34013G20KT 3SM -SN DRSN BKN020 OVC066 M15/M19 A2990 RMK SC6AS2 CIG VRB 15 - 25 SLP217=

TAF CYYC 162338Z 1700/1724 34015G25KT 4SM -SN SCT020 OVC060 TEMPO
1700/1712 2SM -SN OVC020
FM171200 35015G25KT 6SM -SN SCT020 OVC040 TEMPO 1712/1724 3SM -SN
OVC020
BECMG 1720/1722 01008KT
RMK NXT FCST BY 170300Z=

CALGARY/SPRINGBANK/AB    (show WxCam)

SPECI CYBW 170128Z AUTO 36012KT 2 1/4SM -SN OVC030 M16/M19 A2995 RMK SLP243=
SPECI CYBW 170104Z AUTO 35010G15KT 3SM -SN OVC030 M15/M19 A2993 RMK SLP236=
METAR CYBW 170100Z AUTO 34010G15KT 2 1/2SM -SN OVC028 M15/M18 A2993 RMK SLP235=
METAR CYBW 170000Z AUTO 36012KT 2 1/2SM -SN BKN040 OVC050 M15/M18 A2990 RMK SLP223=
SPECI CYBW 162358Z AUTO 36013KT 2 1/2SM -SN BKN042 OVC050 M15/M18 A2990 RMK SLP223=
SPECI CYBW 162323Z AUTO 35011KT 3SM -SN OVC035 M15/M18 A2988 RMK SLP217=
SPECI CYBW 162315Z AUTO 35012KT 2 1/2SM -SN FEW027 OVC033 M15/M18 A2988 RMK SLP216=
SPECI CYBW 162303Z AUTO 35012KT 3SM -SN OVC035 M15/M19 A2988 RMK SLP215=
METAR CYBW 162300Z AUTO 36013KT 2 1/2SM -SN FEW027 OVC035 M15/M19 A2987 RMK SLP214=

TAF CYBW 162338Z 1700/1705 35012KT 6SM -SN SCT020 OVC040 TEMPO
1700/1705 2SM -SN OVC020
RMK FCST BASED ON AUTO OBS. NXT FCST WILL BE ISSUED AT 171245Z=


GRAPHICAL FA CLOUDS & WEATHER FORECASTS
To the Product Selector
Graphical FA gfacn32      

GRAPHICAL FA ICING, TURBULENCE & FREEZING LEVEL FORECASTS
To the Product Selector
Graphical FA gfacn32      

Your time UTC time
Weather data provided by Environment Canada and NAV CANADA